VIR58N KBOS-EGLL
Flight info
| Callsign | VIR58N |
|---|---|
| Flight time | N/A |
| Altitude | 39000 |
| Route | LBSTA8 LBSTA DCT ALLEX N431B ELSIR/M080F400 DCT 50N050W 52N040W 54N030W 55N020W DCT RESNO DCT NETKI/N0449F390 DCT BOFUM Q37 MALUD Q38 NUGRA |
| Aircraft | A333/H-SDE3GHIJ2J3J5M1RVWXY/LB2D1 |
Departure
| Time | 2026-05-04 11:24 |
|---|---|
| Airport | Boston Logan International Airport (KBOS) |
Arrival
| Time | N/A |
|---|---|
| Airport | London Heathrow Airport (EGLL) |
| Time | Latitude | Longitude | Altitude | Speed | Heading |
|---|---|---|---|---|---|
| 2026-05-04 11:12 | 42.37179 | -71.02387 | 26 ft | 0 kts | 135° |
| 2026-05-04 11:16 | 42.37238 | -71.02070 | 29 ft | 5 kts | 95° |
| 2026-05-04 11:16 | 42.37233 | -71.02019 | 29 ft | 7 kts | 99° |
| 2026-05-04 11:16 | 42.37218 | -71.01951 | 29 ft | 8 kts | 110° |
| 2026-05-04 11:17 | 42.37193 | -71.01890 | 29 ft | 8 kts | 122° |
| 2026-05-04 11:17 | 42.37161 | -71.01825 | 29 ft | 9 kts | 125° |
| 2026-05-04 11:19 | 42.36841 | -71.01292 | 29 ft | 5 kts | 67° |
| 2026-05-04 11:19 | 42.36869 | -71.01246 | 29 ft | 8 kts | 43° |
| 2026-05-04 11:19 | 42.36927 | -71.01176 | 29 ft | 15 kts | 40° |
| 2026-05-04 11:19 | 42.37018 | -71.01092 | 29 ft | 16 kts | 25° |
| 2026-05-04 11:20 | 42.37119 | -71.01027 | 29 ft | 16 kts | 26° |
| 2026-05-04 11:20 | 42.37222 | -71.00957 | 29 ft | 17 kts | 25° |
| 2026-05-04 11:20 | 42.37329 | -71.00895 | 29 ft | 17 kts | 20° |
| 2026-05-04 11:20 | 42.37442 | -71.00837 | 29 ft | 18 kts | 20° |
| 2026-05-04 11:22 | 42.37819 | -71.00509 | 29 ft | 7 kts | 111° |
| 2026-05-04 11:22 | 42.37784 | -71.00486 | 29 ft | 6 kts | 195° |
| 2026-05-04 11:23 | 42.37674 | -71.00527 | 29 ft | 41 kts | 197° |
| 2026-05-04 11:23 | 42.37316 | -71.00702 | 31 ft | 90 kts | 198° |
| 2026-05-04 11:24 | 42.33357 | -71.00790 | 1908 ft | 188 kts | 145° |
| 2026-05-04 11:25 | 42.32473 | -70.99224 | 2054 ft | 231 kts | 123° |
| 2026-05-04 11:25 | 42.31685 | -70.97250 | 2557 ft | 246 kts | 120° |
| 2026-05-04 11:25 | 42.31329 | -70.94925 | 3161 ft | 266 kts | 88° |
| 2026-05-04 11:26 | 42.31893 | -70.90351 | 4079 ft | 289 kts | 75° |
| 2026-05-04 11:27 | 42.36135 | -70.74637 | 9024 ft | 287 kts | 19° |
| 2026-05-04 11:28 | 42.37991 | -70.73685 | 9807 ft | 286 kts | 11° |
| 2026-05-04 11:28 | 42.39929 | -70.72894 | 10346 ft | 299 kts | 9° |
| 2026-05-04 11:28 | 42.41989 | -70.72077 | 10631 ft | 318 kts | 10° |
| 2026-05-04 11:28 | 42.44175 | -70.71206 | 10908 ft | 336 kts | 9° |
| 2026-05-04 11:29 | 42.46484 | -70.70444 | 11361 ft | 347 kts | 6° |
| 2026-05-04 11:29 | 42.48857 | -70.69729 | 11986 ft | 352 kts | 6° |
| 2026-05-04 11:29 | 42.51266 | -70.69009 | 12698 ft | 356 kts | 6° |
| 2026-05-04 11:29 | 42.53692 | -70.68283 | 13378 ft | 359 kts | 5° |
| 2026-05-04 11:31 | 42.71227 | -70.63277 | 16812 ft | 374 kts | 2° |
| 2026-05-04 11:33 | 42.86320 | -70.48534 | 19727 ft | 424 kts | 53° |
| 2026-05-04 11:33 | 42.87882 | -70.45116 | 20108 ft | 426 kts | 53° |
| 2026-05-04 11:33 | 42.89441 | -70.41676 | 20493 ft | 427 kts | 53° |
| 2026-05-04 11:34 | 42.91015 | -70.38228 | 20890 ft | 429 kts | 53° |
| 2026-05-04 11:34 | 42.92603 | -70.34784 | 21279 ft | 430 kts | 53° |
| 2026-05-04 11:34 | 42.94209 | -70.31338 | 21655 ft | 431 kts | 53° |
| 2026-05-04 11:34 | 42.95755 | -70.28038 | 22009 ft | 433 kts | 53° |
| 2026-05-04 11:35 | 42.97380 | -70.24579 | 22351 ft | 435 kts | 53° |
| 2026-05-04 11:35 | 42.99021 | -70.21090 | 22708 ft | 437 kts | 53° |
| 2026-05-04 11:35 | 43.00590 | -70.17751 | 23045 ft | 439 kts | 53° |
| 2026-05-04 11:35 | 43.02240 | -70.14233 | 23392 ft | 441 kts | 53° |
| 2026-05-04 11:36 | 43.03873 | -70.10744 | 23692 ft | 443 kts | 53° |
| 2026-05-04 11:36 | 43.05534 | -70.07191 | 23964 ft | 445 kts | 53° |
| 2026-05-04 11:36 | 43.07201 | -70.03620 | 24234 ft | 447 kts | 53° |
| 2026-05-04 11:36 | 43.08878 | -70.00022 | 24507 ft | 449 kts | 53° |
| 2026-05-04 11:37 | 43.10560 | -69.96411 | 24781 ft | 451 kts | 53° |
| 2026-05-04 11:37 | 43.12246 | -69.92783 | 25066 ft | 453 kts | 53° |
| 2026-05-04 11:37 | 43.13940 | -69.89135 | 25346 ft | 455 kts | 53° |
| 2026-05-04 11:37 | 43.15642 | -69.85466 | 25620 ft | 457 kts | 53° |
| 2026-05-04 11:38 | 43.17351 | -69.81776 | 25851 ft | 460 kts | 53° |
| 2026-05-04 11:38 | 43.19068 | -69.78067 | 26133 ft | 462 kts | 53° |
| 2026-05-04 11:38 | 43.20644 | -69.74654 | 26403 ft | 464 kts | 53° |
| 2026-05-04 11:38 | 43.22189 | -69.71307 | 26663 ft | 465 kts | 53° |
| 2026-05-04 11:39 | 43.23923 | -69.67546 | 26935 ft | 467 kts | 53° |
| 2026-05-04 11:39 | 43.25662 | -69.63768 | 27205 ft | 470 kts | 53° |
| 2026-05-04 11:40 | 43.36223 | -69.40725 | 28873 ft | 481 kts | 53° |
| 2026-05-04 11:41 | 43.38001 | -69.36827 | 29133 ft | 483 kts | 53° |
| 2026-05-04 11:41 | 43.39788 | -69.32906 | 29400 ft | 485 kts | 53° |
| 2026-05-04 11:41 | 43.41582 | -69.28963 | 29634 ft | 488 kts | 53° |
| 2026-05-04 11:41 | 43.43310 | -69.25160 | 29865 ft | 490 kts | 53° |
| 2026-05-04 11:42 | 43.45135 | -69.21138 | 30106 ft | 492 kts | 53° |
| 2026-05-04 11:42 | 43.46947 | -69.17139 | 30328 ft | 494 kts | 53° |
| 2026-05-04 11:42 | 43.48766 | -69.13119 | 30546 ft | 496 kts | 53° |
| 2026-05-04 11:42 | 43.50594 | -69.09073 | 30732 ft | 498 kts | 54° |
| 2026-05-04 11:43 | 43.52426 | -69.05013 | 30922 ft | 501 kts | 54° |
| 2026-05-04 11:43 | 43.54269 | -69.00923 | 31110 ft | 503 kts | 54° |
| 2026-05-04 11:43 | 43.56113 | -68.96825 | 31365 ft | 503 kts | 54° |
| 2026-05-04 11:43 | 43.57956 | -68.92723 | 31641 ft | 504 kts | 54° |
| 2026-05-04 11:44 | 43.59799 | -68.88614 | 31942 ft | 504 kts | 54° |
| 2026-05-04 11:44 | 43.61641 | -68.84501 | 32258 ft | 504 kts | 55° |
| 2026-05-04 11:44 | 43.63485 | -68.80381 | 32538 ft | 504 kts | 55° |
| 2026-05-04 11:44 | 43.65107 | -68.76749 | 32779 ft | 505 kts | 55° |
| 2026-05-04 11:45 | 43.66951 | -68.72619 | 33051 ft | 506 kts | 55° |
| 2026-05-04 11:45 | 43.68798 | -68.68476 | 33326 ft | 507 kts | 56° |
| 2026-05-04 11:45 | 43.70621 | -68.64378 | 33605 ft | 508 kts | 56° |
| 2026-05-04 11:45 | 43.72470 | -68.60217 | 33901 ft | 508 kts | 56° |
| 2026-05-04 11:46 | 43.74319 | -68.56051 | 34201 ft | 508 kts | 56° |
| 2026-05-04 11:46 | 43.76165 | -68.51885 | 34460 ft | 508 kts | 56° |
| 2026-05-04 11:46 | 43.78010 | -68.47716 | 34680 ft | 509 kts | 56° |
| 2026-05-04 11:46 | 43.79860 | -68.43529 | 34889 ft | 510 kts | 56° |
| 2026-05-04 11:47 | 43.81574 | -68.39645 | 35099 ft | 510 kts | 56° |
| 2026-05-04 11:47 | 43.83424 | -68.35447 | 35317 ft | 511 kts | 56° |
| 2026-05-04 11:47 | 43.84672 | -68.32611 | 35461 ft | 511 kts | 56° |
| 2026-05-04 11:47 | 43.87108 | -68.27067 | 35756 ft | 512 kts | 57° |
| 2026-05-04 11:48 | 43.88335 | -68.24270 | 35920 ft | 512 kts | 57° |
| 2026-05-04 11:48 | 43.90182 | -68.20056 | 36135 ft | 512 kts | 57° |
| 2026-05-04 11:48 | 43.92031 | -68.15832 | 36323 ft | 513 kts | 57° |
| 2026-05-04 11:48 | 43.93884 | -68.11592 | 36510 ft | 514 kts | 57° |
| 2026-05-04 11:49 | 43.95737 | -68.07345 | 36694 ft | 515 kts | 57° |
| 2026-05-04 11:49 | 43.97477 | -68.03351 | 36865 ft | 516 kts | 57° |
| 2026-05-04 11:49 | 43.99083 | -67.99662 | 37027 ft | 516 kts | 57° |
| 2026-05-04 11:49 | 44.00491 | -67.96422 | 37201 ft | 516 kts | 57° |
| 2026-05-04 11:50 | 44.02341 | -67.92159 | 37455 ft | 515 kts | 57° |
| 2026-05-04 11:50 | 44.04189 | -67.87895 | 37663 ft | 515 kts | 57° |
| 2026-05-04 11:50 | 44.06037 | -67.83625 | 37843 ft | 515 kts | 57° |
| 2026-05-04 11:50 | 44.07882 | -67.79355 | 38017 ft | 516 kts | 57° |
| 2026-05-04 11:51 | 44.09729 | -67.75074 | 38195 ft | 516 kts | 57° |
| 2026-05-04 11:51 | 44.11579 | -67.70781 | 38372 ft | 517 kts | 57° |
| 2026-05-04 11:51 | 44.13425 | -67.66490 | 38533 ft | 517 kts | 57° |
| 2026-05-04 11:51 | 44.15268 | -67.62199 | 38739 ft | 516 kts | 57° |
| 2026-05-04 11:52 | 44.17108 | -67.57909 | 38839 ft | 516 kts | 58° |
| 2026-05-04 11:52 | 44.20786 | -67.49314 | 38842 ft | 517 kts | 58° |
| 2026-05-04 11:53 | 44.24459 | -67.40706 | 38855 ft | 516 kts | 58° |
| 2026-05-04 11:53 | 44.28124 | -67.32091 | 38858 ft | 516 kts | 58° |
| 2026-05-04 11:55 | 44.42698 | -66.97631 | 38834 ft | 515 kts | 57° |
| 2026-05-04 11:56 | 44.46450 | -66.89091 | 38823 ft | 515 kts | 57° |
| 2026-05-04 11:56 | 44.50196 | -66.80638 | 38811 ft | 515 kts | 57° |
| 2026-05-04 11:57 | 44.53964 | -66.72084 | 38824 ft | 516 kts | 57° |
| 2026-05-04 11:57 | 44.57719 | -66.63509 | 38802 ft | 517 kts | 57° |
| 2026-05-04 11:58 | 44.60766 | -66.56522 | 38794 ft | 517 kts | 57° |
| 2026-05-04 11:58 | 44.64417 | -66.48126 | 38793 ft | 517 kts | 57° |
| 2026-05-04 11:59 | 44.68159 | -66.39498 | 38790 ft | 517 kts | 57° |
| 2026-05-04 11:59 | 44.71895 | -66.30858 | 38771 ft | 517 kts | 57° |
| 2026-05-04 12:00 | 44.75624 | -66.22207 | 38772 ft | 517 kts | 57° |
| 2026-05-04 12:00 | 44.79350 | -66.13539 | 38777 ft | 517 kts | 57° |
| 2026-05-04 12:01 | 44.83067 | -66.04864 | 38794 ft | 517 kts | 58° |
| 2026-05-04 12:02 | 44.95984 | -65.74508 | 38784 ft | 515 kts | 58° |
| 2026-05-04 12:03 | 44.99654 | -65.65824 | 38758 ft | 514 kts | 58° |
| 2026-05-04 12:03 | 45.03282 | -65.57213 | 38773 ft | 513 kts | 58° |
| 2026-05-04 12:04 | 45.06948 | -65.48484 | 38740 ft | 514 kts | 58° |
| 2026-05-04 12:04 | 45.10596 | -65.39773 | 38733 ft | 514 kts | 58° |
| 2026-05-04 12:05 | 45.14173 | -65.31205 | 38730 ft | 512 kts | 58° |
| 2026-05-04 12:05 | 45.17785 | -65.22524 | 38704 ft | 511 kts | 58° |
| 2026-05-04 12:06 | 45.20998 | -65.14782 | 38690 ft | 511 kts | 59° |
| 2026-05-04 12:06 | 45.23749 | -65.08136 | 38696 ft | 511 kts | 59° |
| 2026-05-04 12:07 | 45.27339 | -64.99438 | 38686 ft | 510 kts | 59° |
| 2026-05-04 12:07 | 45.30910 | -64.90759 | 38673 ft | 508 kts | 59° |
| 2026-05-04 12:08 | 45.34465 | -64.82091 | 38678 ft | 508 kts | 59° |
| 2026-05-04 12:08 | 45.38020 | -64.73399 | 38669 ft | 509 kts | 59° |
| 2026-05-04 12:09 | 45.41566 | -64.64702 | 38661 ft | 508 kts | 59° |
| 2026-05-04 12:09 | 45.45105 | -64.55993 | 38643 ft | 508 kts | 59° |
| 2026-05-04 12:10 | 45.48637 | -64.47274 | 38628 ft | 508 kts | 59° |
| 2026-05-04 12:10 | 45.52137 | -64.38607 | 38615 ft | 507 kts | 59° |
| 2026-05-04 12:11 | 45.55649 | -64.29883 | 38595 ft | 507 kts | 59° |
| 2026-05-04 12:11 | 45.59149 | -64.21163 | 38579 ft | 507 kts | 60° |
| 2026-05-04 12:12 | 45.62649 | -64.12415 | 38581 ft | 507 kts | 60° |
| 2026-05-04 12:12 | 45.65836 | -64.04424 | 38570 ft | 507 kts | 60° |
| 2026-05-04 12:14 | 45.79736 | -63.69303 | 38535 ft | 507 kts | 60° |
| 2026-05-04 12:15 | 45.83195 | -63.60494 | 38533 ft | 507 kts | 60° |
| 2026-05-04 12:15 | 45.86647 | -63.51675 | 38526 ft | 507 kts | 60° |
| 2026-05-04 12:16 | 45.89951 | -63.43205 | 38542 ft | 507 kts | 60° |
| 2026-05-04 12:16 | 45.93222 | -63.34794 | 38526 ft | 509 kts | 60° |
| 2026-05-04 12:17 | 45.96676 | -63.25886 | 38506 ft | 511 kts | 60° |
| 2026-05-04 12:17 | 46.00127 | -63.16958 | 38514 ft | 511 kts | 61° |
| 2026-05-04 12:18 | 46.03565 | -63.08033 | 38510 ft | 511 kts | 61° |
| 2026-05-04 12:18 | 46.07004 | -62.99076 | 38509 ft | 511 kts | 61° |
| 2026-05-04 12:19 | 46.10433 | -62.90114 | 38503 ft | 511 kts | 61° |
| 2026-05-04 12:19 | 46.13838 | -62.81186 | 38491 ft | 512 kts | 61° |
| 2026-05-04 12:20 | 46.17259 | -62.72190 | 38470 ft | 511 kts | 61° |
| 2026-05-04 12:20 | 46.20650 | -62.63240 | 38447 ft | 511 kts | 62° |
| 2026-05-04 12:21 | 46.24049 | -62.54239 | 38426 ft | 510 kts | 62° |
| 2026-05-04 12:21 | 46.27440 | -62.45232 | 38442 ft | 510 kts | 62° |
| 2026-05-04 12:22 | 46.30824 | -62.36213 | 38418 ft | 510 kts | 62° |
| 2026-05-04 12:22 | 46.34210 | -62.27157 | 38396 ft | 513 kts | 62° |
| 2026-05-04 12:23 | 46.37596 | -62.18070 | 38413 ft | 513 kts | 62° |
| 2026-05-04 12:23 | 46.40981 | -62.08957 | 38362 ft | 513 kts | 62° |
| 2026-05-04 12:24 | 46.44355 | -61.99843 | 38346 ft | 514 kts | 62° |
| 2026-05-04 12:24 | 46.47730 | -61.90693 | 38351 ft | 516 kts | 63° |
| 2026-05-04 12:25 | 46.50663 | -61.82718 | 38317 ft | 518 kts | 63° |
| 2026-05-04 12:25 | 46.54046 | -61.73489 | 38310 ft | 518 kts | 63° |
| 2026-05-04 12:26 | 46.57422 | -61.64246 | 38302 ft | 518 kts | 63° |
| 2026-05-04 12:26 | 46.60784 | -61.55013 | 38292 ft | 516 kts | 63° |
| 2026-05-04 12:27 | 46.64022 | -61.46087 | 38275 ft | 516 kts | 63° |
| 2026-05-04 12:27 | 46.67364 | -61.36844 | 38265 ft | 516 kts | 63° |
| 2026-05-04 12:28 | 46.70695 | -61.27598 | 38276 ft | 515 kts | 63° |
| 2026-05-04 12:28 | 46.74014 | -61.18357 | 38245 ft | 513 kts | 64° |
| 2026-05-04 12:29 | 46.76481 | -61.11463 | 38251 ft | 515 kts | 64° |
| 2026-05-04 12:29 | 46.79801 | -61.02161 | 38254 ft | 518 kts | 64° |
| 2026-05-04 12:30 | 46.81107 | -60.98492 | 38248 ft | 518 kts | 64° |
| 2026-05-04 12:30 | 46.84416 | -60.89176 | 38227 ft | 517 kts | 64° |
| 2026-05-04 12:31 | 46.87711 | -60.79866 | 38218 ft | 516 kts | 64° |
| 2026-05-04 12:31 | 46.90342 | -60.72409 | 38217 ft | 515 kts | 65° |
| 2026-05-04 12:32 | 46.95678 | -60.57219 | 38183 ft | 516 kts | 64° |
| 2026-05-04 12:33 | 46.98944 | -60.47877 | 38192 ft | 514 kts | 64° |
| 2026-05-04 12:33 | 47.02187 | -60.38573 | 38177 ft | 512 kts | 65° |
| 2026-05-04 12:34 | 47.05422 | -60.29253 | 38181 ft | 513 kts | 65° |
| 2026-05-04 12:34 | 47.08653 | -60.19909 | 38154 ft | 514 kts | 65° |
| 2026-05-04 12:35 | 47.11878 | -60.10556 | 38134 ft | 513 kts | 65° |
| 2026-05-04 12:35 | 47.15094 | -60.01192 | 38139 ft | 514 kts | 65° |
| 2026-05-04 12:36 | 47.18186 | -59.92158 | 38130 ft | 514 kts | 65° |
| 2026-05-04 12:36 | 47.21388 | -59.82771 | 38133 ft | 514 kts | 65° |
| 2026-05-04 12:37 | 47.24578 | -59.73384 | 38113 ft | 511 kts | 65° |
| 2026-05-04 12:37 | 47.27078 | -59.66006 | 38100 ft | 509 kts | 65° |
| 2026-05-04 12:38 | 47.30230 | -59.56669 | 38090 ft | 510 kts | 66° |
| 2026-05-04 12:38 | 47.33381 | -59.47300 | 38081 ft | 512 kts | 65° |
| 2026-05-04 12:39 | 47.36533 | -59.37899 | 38081 ft | 510 kts | 66° |
| 2026-05-04 12:39 | 47.39092 | -59.30243 | 38068 ft | 508 kts | 66° |
| 2026-05-04 12:40 | 47.41686 | -59.22457 | 38066 ft | 507 kts | 66° |
| 2026-05-04 12:40 | 47.44786 | -59.13118 | 38062 ft | 507 kts | 66° |
| 2026-05-04 12:41 | 47.47824 | -59.03935 | 38053 ft | 507 kts | 66° |
| 2026-05-04 12:41 | 47.50908 | -58.94579 | 38051 ft | 506 kts | 66° |
| 2026-05-04 12:42 | 47.53981 | -58.85221 | 38056 ft | 506 kts | 66° |
| 2026-05-04 12:42 | 47.57040 | -58.75873 | 38055 ft | 506 kts | 66° |
| 2026-05-04 12:43 | 47.60098 | -58.66494 | 38047 ft | 506 kts | 66° |
| 2026-05-04 12:43 | 47.63145 | -58.57115 | 38060 ft | 505 kts | 66° |
| 2026-05-04 12:44 | 47.66181 | -58.47735 | 38063 ft | 504 kts | 67° |
| 2026-05-04 12:44 | 47.69209 | -58.38346 | 38068 ft | 504 kts | 67° |
| 2026-05-04 12:45 | 47.72232 | -58.28936 | 38076 ft | 504 kts | 67° |
| 2026-05-04 12:45 | 47.75241 | -58.19537 | 38082 ft | 504 kts | 67° |
| 2026-05-04 12:46 | 47.78239 | -58.10134 | 38091 ft | 503 kts | 67° |
| 2026-05-04 12:46 | 47.79733 | -58.05435 | 38091 ft | 503 kts | 67° |
| 2026-05-04 12:47 | 47.82345 | -57.97202 | 38094 ft | 504 kts | 68° |
| 2026-05-04 12:47 | 47.85260 | -57.87977 | 38093 ft | 506 kts | 68° |
| 2026-05-04 12:48 | 47.88248 | -57.78489 | 38111 ft | 506 kts | 68° |
| 2026-05-04 12:48 | 47.91230 | -57.68987 | 38131 ft | 506 kts | 68° |
| 2026-05-04 12:49 | 47.93790 | -57.60798 | 38130 ft | 506 kts | 68° |
| 2026-05-04 12:49 | 47.96507 | -57.52079 | 38132 ft | 506 kts | 68° |
| 2026-05-04 12:50 | 47.99466 | -57.42549 | 38137 ft | 505 kts | 68° |
| 2026-05-04 12:50 | 48.02407 | -57.33042 | 38158 ft | 504 kts | 68° |
| 2026-05-04 12:51 | 48.05336 | -57.23533 | 38157 ft | 504 kts | 68° |
| 2026-05-04 12:51 | 48.06797 | -57.18777 | 38149 ft | 504 kts | 69° |
| 2026-05-04 12:52 | 48.08250 | -57.14039 | 38160 ft | 504 kts | 69° |
| 2026-05-04 12:52 | 48.11167 | -57.04501 | 38160 ft | 504 kts | 70° |
| 2026-05-04 12:53 | 48.14073 | -56.94956 | 38158 ft | 504 kts | 70° |
| 2026-05-04 12:53 | 48.16973 | -56.85398 | 38158 ft | 504 kts | 70° |
| 2026-05-04 12:54 | 48.19752 | -56.76205 | 38155 ft | 504 kts | 70° |
| 2026-05-04 12:54 | 48.22636 | -56.66629 | 38154 ft | 504 kts | 70° |
| 2026-05-04 12:55 | 48.25514 | -56.57036 | 38155 ft | 504 kts | 70° |
| 2026-05-04 12:55 | 48.28382 | -56.47436 | 38163 ft | 504 kts | 70° |
| 2026-05-04 12:56 | 48.30806 | -56.39292 | 38163 ft | 504 kts | 70° |
| 2026-05-04 12:56 | 48.33359 | -56.30688 | 38176 ft | 503 kts | 71° |
| 2026-05-04 12:57 | 48.34925 | -56.25395 | 38179 ft | 502 kts | 71° |
| 2026-05-04 12:57 | 48.36146 | -56.21263 | 38180 ft | 502 kts | 71° |
| 2026-05-04 12:58 | 48.38969 | -56.11673 | 38192 ft | 501 kts | 71° |
| 2026-05-04 12:58 | 48.41654 | -56.02518 | 38194 ft | 501 kts | 71° |
| 2026-05-04 12:59 | 48.42588 | -55.99326 | 38203 ft | 501 kts | 71° |
| 2026-05-04 12:59 | 48.44484 | -55.92833 | 38200 ft | 501 kts | 71° |
| 2026-05-04 13:00 | 48.47235 | -55.83379 | 38210 ft | 501 kts | 71° |
| 2026-05-04 13:00 | 48.49822 | -55.74457 | 38213 ft | 501 kts | 71° |
| 2026-05-04 13:01 | 48.52604 | -55.64823 | 38234 ft | 501 kts | 71° |
| 2026-05-04 13:01 | 48.55369 | -55.55218 | 38229 ft | 496 kts | 71° |
| 2026-05-04 13:02 | 48.58106 | -55.45672 | 38230 ft | 494 kts | 72° |
| 2026-05-04 13:02 | 48.60820 | -55.36154 | 38253 ft | 493 kts | 72° |
| 2026-05-04 13:03 | 48.63528 | -55.26622 | 38259 ft | 493 kts | 72° |
| 2026-05-04 13:03 | 48.66228 | -55.17086 | 38274 ft | 493 kts | 72° |
| 2026-05-04 13:04 | 48.68903 | -55.07600 | 38272 ft | 493 kts | 72° |
| 2026-05-04 13:04 | 48.71340 | -54.98927 | 38286 ft | 494 kts | 72° |
| 2026-05-04 13:05 | 48.74027 | -54.89321 | 38305 ft | 497 kts | 72° |
| 2026-05-04 13:05 | 48.76474 | -54.80541 | 38317 ft | 498 kts | 72° |
| 2026-05-04 13:06 | 48.77931 | -54.75298 | 38320 ft | 499 kts | 72° |
| 2026-05-04 13:06 | 48.80619 | -54.65603 | 38325 ft | 498 kts | 72° |
| 2026-05-04 13:07 | 48.83296 | -54.55906 | 38314 ft | 498 kts | 72° |
| 2026-05-04 13:07 | 48.85850 | -54.46612 | 38328 ft | 498 kts | 72° |
| 2026-05-04 13:08 | 48.88490 | -54.36967 | 38351 ft | 498 kts | 72° |
| 2026-05-04 13:08 | 48.91139 | -54.27250 | 38358 ft | 498 kts | 72° |
| 2026-05-04 13:09 | 48.93781 | -54.17519 | 38364 ft | 497 kts | 72° |
| 2026-05-04 13:09 | 48.96409 | -54.07798 | 38381 ft | 496 kts | 73° |
| 2026-05-04 13:10 | 48.99024 | -53.98088 | 38390 ft | 496 kts | 73° |
| 2026-05-04 13:10 | 49.01629 | -53.88369 | 38404 ft | 496 kts | 73° |
| 2026-05-04 13:11 | 49.04228 | -53.78634 | 38404 ft | 496 kts | 73° |
| 2026-05-04 13:11 | 49.06815 | -53.68903 | 38393 ft | 495 kts | 73° |
| 2026-05-04 13:12 | 49.09392 | -53.59169 | 38420 ft | 496 kts | 73° |
| 2026-05-04 13:12 | 49.11844 | -53.49869 | 38437 ft | 496 kts | 73° |
| 2026-05-04 13:13 | 49.14437 | -53.39996 | 38440 ft | 496 kts | 73° |
| 2026-05-04 13:13 | 49.16977 | -53.30281 | 38434 ft | 496 kts | 73° |
| 2026-05-04 13:14 | 49.19525 | -53.20494 | 38448 ft | 495 kts | 73° |
| 2026-05-04 13:14 | 49.22062 | -53.10708 | 38470 ft | 495 kts | 73° |
| 2026-05-04 13:15 | 49.24592 | -53.00906 | 38468 ft | 495 kts | 73° |
| 2026-05-04 13:15 | 49.27111 | -52.91104 | 38476 ft | 495 kts | 73° |
| 2026-05-04 13:16 | 49.29622 | -52.81292 | 38477 ft | 494 kts | 74° |
| 2026-05-04 13:16 | 49.31935 | -52.72216 | 38496 ft | 496 kts | 74° |
| 2026-05-04 13:17 | 49.34438 | -52.62346 | 38506 ft | 497 kts | 74° |
| 2026-05-04 13:17 | 49.36937 | -52.52458 | 38507 ft | 497 kts | 74° |
| 2026-05-04 13:18 | 49.39428 | -52.42559 | 38517 ft | 497 kts | 74° |
| 2026-05-04 13:18 | 49.41891 | -52.32731 | 38521 ft | 496 kts | 74° |
| 2026-05-04 13:19 | 49.44260 | -52.23231 | 38528 ft | 496 kts | 74° |
| 2026-05-04 13:19 | 49.46582 | -52.13877 | 38533 ft | 496 kts | 75° |
| 2026-05-04 13:20 | 49.49033 | -52.03965 | 38549 ft | 496 kts | 75° |
| 2026-05-04 13:20 | 49.51524 | -51.94065 | 38551 ft | 497 kts | 73° |
| 2026-05-04 13:21 | 49.54086 | -51.84236 | 38531 ft | 497 kts | 73° |
| 2026-05-04 13:21 | 49.56669 | -51.74328 | 38608 ft | 499 kts | 73° |
| 2026-05-04 13:21 | 49.57957 | -51.69360 | 38761 ft | 499 kts | 73° |
| 2026-05-04 13:22 | 49.59240 | -51.64388 | 38925 ft | 499 kts | 73° |
| 2026-05-04 13:22 | 49.60520 | -51.59416 | 39080 ft | 499 kts | 73° |
| 2026-05-04 13:22 | 49.61796 | -51.54442 | 39230 ft | 498 kts | 74° |
| 2026-05-04 13:22 | 49.63068 | -51.49470 | 39397 ft | 498 kts | 74° |
| 2026-05-04 13:23 | 49.64335 | -51.44504 | 39536 ft | 498 kts | 74° |
| 2026-05-04 13:23 | 49.66873 | -51.34518 | 39576 ft | 501 kts | 74° |
| 2026-05-04 13:24 | 49.68980 | -51.26203 | 39587 ft | 501 kts | 74° |
| 2026-05-04 13:24 | 49.71658 | -51.15593 | 39589 ft | 500 kts | 74° |
| 2026-05-04 13:25 | 49.75179 | -51.01562 | 39597 ft | 500 kts | 75° |
| 2026-05-04 13:25 | 49.77539 | -50.92109 | 39598 ft | 500 kts | 75° |
| 2026-05-04 13:26 | 49.77839 | -50.90903 | 39598 ft | 500 kts | 75° |
| 2026-05-04 13:26 | 49.80545 | -50.80004 | 39613 ft | 501 kts | 75° |
| 2026-05-04 13:27 | 49.83040 | -50.69907 | 39590 ft | 502 kts | 75° |
| 2026-05-04 13:27 | 49.85528 | -50.59796 | 39614 ft | 502 kts | 76° |
| 2026-05-04 13:28 | 49.88006 | -50.49684 | 39626 ft | 502 kts | 76° |
| 2026-05-04 13:28 | 49.90073 | -50.41210 | 39625 ft | 502 kts | 76° |
| 2026-05-04 13:29 | 49.92296 | -50.32060 | 39629 ft | 501 kts | 76° |
| 2026-05-04 13:29 | 49.94693 | -50.22151 | 39627 ft | 501 kts | 76° |
| 2026-05-04 13:30 | 49.97135 | -50.12004 | 39634 ft | 502 kts | 76° |
| 2026-05-04 13:30 | 49.99571 | -50.01842 | 39643 ft | 502 kts | 76° |
| 2026-05-04 13:31 | 50.01630 | -49.93453 | 39647 ft | 503 kts | 75° |
| 2026-05-04 13:31 | 50.02628 | -49.89486 | 39626 ft | 503 kts | 75° |
| 2026-05-04 13:32 | 50.05191 | -49.79351 | 39637 ft | 503 kts | 75° |
| 2026-05-04 13:32 | 50.07739 | -49.69221 | 39651 ft | 503 kts | 75° |
| 2026-05-04 13:33 | 50.10269 | -49.59077 | 39667 ft | 502 kts | 76° |
| 2026-05-04 13:33 | 50.12782 | -49.48930 | 39666 ft | 502 kts | 76° |
| 2026-05-04 13:34 | 50.15287 | -49.38772 | 39672 ft | 502 kts | 76° |
| 2026-05-04 13:34 | 50.17784 | -49.28597 | 39670 ft | 502 kts | 76° |
| 2026-05-04 13:35 | 50.21493 | -49.13408 | 39684 ft | 501 kts | 76° |
| 2026-05-04 13:36 | 50.23285 | -49.06028 | 39692 ft | 501 kts | 76° |
| 2026-05-04 13:36 | 50.25748 | -48.95842 | 39693 ft | 501 kts | 76° |
| 2026-05-04 13:37 | 50.28202 | -48.85648 | 39704 ft | 502 kts | 76° |
| 2026-05-04 13:37 | 50.28617 | -48.83920 | 39685 ft | 502 kts | 76° |
| 2026-05-04 13:38 | 50.28843 | -48.82975 | 39681 ft | 502 kts | 76° |
| 2026-05-04 13:38 | 50.31301 | -48.72705 | 39709 ft | 503 kts | 76° |
| 2026-05-04 13:39 | 50.33526 | -48.63366 | 39708 ft | 503 kts | 76° |